sensor_id;sensor_type;location;lat;lon;timestamp;pressure;altitude;pressure_sealevel;temperature;humidity
19777;BME280;10047;42.490;26.012;2023-03-19T00:02:06;99123.84;;;8.92;100.00
19777;BME280;10047;42.490;26.012;2023-03-19T00:04:32;99185.69;;;9.11;100.00
19777;BME280;10047;42.490;26.012;2023-03-19T00:06:57;99144.47;;;9.06;100.00
19777;BME280;10047;42.490;26.012;2023-03-19T00:09:23;99177.75;;;9.43;100.00
19777;BME280;10047;42.490;26.012;2023-03-19T00:11:48;99124.25;;;9.05;100.00
19777;BME280;10047;42.490;26.012;2023-03-19T00:14:15;99188.63;;;9.24;100.00
19777;BME280;10047;42.490;26.012;2023-03-19T00:16:41;99158.31;;;9.21;100.00
19777;BME280;10047;42.490;26.012;2023-03-19T00:19:07;99169.31;;;9.20;100.00
19777;BME280;10047;42.490;26.012;2023-03-19T00:21:33;99120.09;;;9.02;100.00
19777;BME280;10047;42.490;26.012;2023-03-19T00:23:58;99162.00;;;9.35;100.00
19777;BME280;10047;42.490;26.012;2023-03-19T00:26:31;99128.84;;;8.94;100.00
19777;BME280;10047;42.490;26.012;2023-03-19T00:28:57;99130.38;;;8.99;100.00
19777;BME280;10047;42.490;26.012;2023-03-19T00:31:24;99163.66;;;9.36;100.00
19777;BME280;10047;42.490;26.012;2023-03-19T00:33:50;99124.59;;;9.19;100.00
19777;BME280;10047;42.490;26.012;2023-03-19T00:36:16;99121.16;;;9.20;100.00
19777;BME280;10047;42.490;26.012;2023-03-19T00:38:43;99157.91;;;9.31;100.00
19777;BME280;10047;42.490;26.012;2023-03-19T00:41:09;99171.78;;;9.23;100.00
19777;BME280;10047;42.490;26.012;2023-03-19T00:43:35;99167.06;;;9.35;100.00
19777;BME280;10047;42.490;26.012;2023-03-19T00:46:01;99116.31;;;8.91;100.00
19777;BME280;10047;42.490;26.012;2023-03-19T00:48:26;99162.22;;;9.29;100.00
19777;BME280;10047;42.490;26.012;2023-03-19T00:50:52;99114.38;;;8.97;100.00
19777;BME280;10047;42.490;26.012;2023-03-19T00:53:18;99149.81;;;9.22;100.00
19777;BME280;10047;42.490;26.012;2023-03-19T00:55:44;99170.16;;;9.20;100.00
19777;BME280;10047;42.490;26.012;2023-03-19T00:58:10;99145.13;;;9.11;100.00
19777;BME280;10047;42.490;26.012;2023-03-19T01:00:37;99113.81;;;9.12;100.00
19777;BME280;10047;42.490;26.012;2023-03-19T01:03:03;99176.06;;;9.21;100.00
19777;BME280;10047;42.490;26.012;2023-03-19T01:05:30;99132.56;;;9.08;100.00
19777;BME280;10047;42.490;26.012;2023-03-19T01:07:55;99115.19;;;8.98;100.00
19777;BME280;10047;42.490;26.012;2023-03-19T01:10:22;99134.53;;;9.00;100.00
19777;BME280;10047;42.490;26.012;2023-03-19T01:12:48;99160.31;;;9.11;100.00
19777;BME280;10047;42.490;26.012;2023-03-19T01:15:15;99171.72;;;9.24;100.00
19777;BME280;10047;42.490;26.012;2023-03-19T01:17:40;99126.44;;;9.14;100.00
19777;BME280;10047;42.490;26.012;2023-03-19T01:20:08;99085.56;;;8.77;100.00
19777;BME280;10047;42.490;26.012;2023-03-19T01:22:40;99167.56;;;9.45;100.00
19777;BME280;10047;42.490;26.012;2023-03-19T01:25:07;99131.75;;;9.31;100.00
19777;BME280;10047;42.490;26.012;2023-03-19T01:27:34;99107.44;;;9.02;100.00
19777;BME280;10047;42.490;26.012;2023-03-19T01:30:00;99102.09;;;9.10;100.00
19777;BME280;10047;42.490;26.012;2023-03-19T01:32:25;99104.63;;;9.10;100.00
19777;BME280;10047;42.490;26.012;2023-03-19T01:34:50;99091.38;;;9.02;100.00
19777;BME280;10047;42.490;26.012;2023-03-19T01:37:18;99126.13;;;9.23;100.00
19777;BME280;10047;42.490;26.012;2023-03-19T01:39:43;99089.47;;;8.85;100.00
19777;BME280;10047;42.490;26.012;2023-03-19T01:42:09;99137.25;;;9.19;100.00
19777;BME280;10047;42.490;26.012;2023-03-19T01:44:37;99119.44;;;9.20;100.00
19777;BME280;10047;42.490;26.012;2023-03-19T01:47:06;99122.09;;;9.17;100.00
19777;BME280;10047;42.490;26.012;2023-03-19T01:49:37;99116.09;;;9.20;100.00
19777;BME280;10047;42.490;26.012;2023-03-19T01:52:05;99112.25;;;9.31;100.00
19777;BME280;10047;42.490;26.012;2023-03-19T01:54:32;99090.88;;;9.15;100.00
19777;BME280;10047;42.490;26.012;2023-03-19T01:57:02;99111.19;;;9.37;100.00
19777;BME280;10047;42.490;26.012;2023-03-19T01:59:38;99073.09;;;8.94;100.00
19777;BME280;10047;42.490;26.012;2023-03-19T02:02:14;99089.81;;;8.99;100.00
19777;BME280;10047;42.490;26.012;2023-03-19T02:04:42;99123.63;;;9.21;100.00
19777;BME280;10047;42.490;26.012;2023-03-19T02:07:09;99070.34;;;9.00;100.00
19777;BME280;10047;42.490;26.012;2023-03-19T02:09:36;99116.09;;;9.20;100.00
19777;BME280;10047;42.490;26.012;2023-03-19T02:12:01;99110.09;;;8.99;100.00
19777;BME280;10047;42.490;26.012;2023-03-19T02:14:27;99111.84;;;9.20;100.00
19777;BME280;10047;42.490;26.012;2023-03-19T02:16:53;99080.34;;;8.80;100.00
19777;BME280;10047;42.490;26.012;2023-03-19T02:19:30;99076.13;;;8.80;100.00
19777;BME280;10047;42.490;26.012;2023-03-19T02:21:59;99106.94;;;8.93;100.00
19777;BME280;10047;42.490;26.012;2023-03-19T02:24:35;99138.63;;;9.04;100.00
19777;BME280;10047;42.490;26.012;2023-03-19T02:27:04;99088.53;;;8.88;100.00
19777;BME280;10047;42.490;26.012;2023-03-19T02:29:32;99129.34;;;9.03;100.00
19777;BME280;10047;42.490;26.012;2023-03-19T02:31:57;99122.75;;;8.99;100.00
19777;BME280;10047;42.490;26.012;2023-03-19T02:36:56;99162.22;;;8.82;100.00
19777;BME280;10047;42.490;26.012;2023-03-19T02:39:28;99164.41;;;8.92;100.00
19777;BME280;10047;42.490;26.012;2023-03-19T02:41:57;99129.50;;;8.51;100.00
19777;BME280;10047;42.490;26.012;2023-03-19T02:44:23;99146.84;;;8.63;100.00
19777;BME280;10047;42.490;26.012;2023-03-19T02:46:48;99113.81;;;8.40;100.00
19777;BME280;10047;42.490;26.012;2023-03-19T02:49:14;99191.66;;;8.86;100.00
19777;BME280;10047;42.490;26.012;2023-03-19T02:51:39;99159.97;;;8.49;100.00
19777;BME280;10047;42.490;26.012;2023-03-19T02:54:06;99213.16;;;8.74;100.00
19777;BME280;10047;42.490;26.012;2023-03-19T02:56:32;99172.75;;;8.69;100.00
19777;BME280;10047;42.490;26.012;2023-03-19T02:58:57;99214.66;;;8.80;100.00
19777;BME280;10047;42.490;26.012;2023-03-19T03:01:23;99231.81;;;8.71;100.00
19777;BME280;10047;42.490;26.012;2023-03-19T03:03:48;99225.00;;;8.73;100.00
19777;BME280;10047;42.490;26.012;2023-03-19T03:06:14;99178.56;;;8.48;100.00
19777;BME280;10047;42.490;26.012;2023-03-19T03:08:42;99220.91;;;8.69;100.00
19777;BME280;10047;42.490;26.012;2023-03-19T03:11:07;99166.09;;;8.42;100.00
19777;BME280;10047;42.490;26.012;2023-03-19T03:13:33;99206.13;;;8.57;100.00
19777;BME280;10047;42.490;26.012;2023-03-19T03:15:59;99194.31;;;8.56;100.00
19777;BME280;10047;42.490;26.012;2023-03-19T03:18:24;99187.22;;;8.41;100.00
19777;BME280;10047;42.490;26.012;2023-03-19T03:20:51;99199.38;;;8.83;100.00
19777;BME280;10047;42.490;26.012;2023-03-19T03:23:16;99167.19;;;8.60;100.00
19777;BME280;10047;42.490;26.012;2023-03-19T03:25:41;99173.44;;;8.74;100.00
19777;BME280;10047;42.490;26.012;2023-03-19T03:28:07;99128.66;;;8.50;100.00
19777;BME280;10047;42.490;26.012;2023-03-19T03:30:32;99170.41;;;8.65;100.00
19777;BME280;10047;42.490;26.012;2023-03-19T03:32:58;99101.72;;;8.49;100.00
19777;BME280;10047;42.490;26.012;2023-03-19T03:35:23;99075.09;;;8.12;100.00
19777;BME280;10047;42.490;26.012;2023-03-19T03:37:50;99111.88;;;8.48;100.00
19777;BME280;10047;42.490;26.012;2023-03-19T03:40:15;99100.88;;;8.49;100.00
19777;BME280;10047;42.490;26.012;2023-03-19T03:42:42;99141.38;;;8.73;100.00
19777;BME280;10047;42.490;26.012;2023-03-19T03:45:08;99155.75;;;8.98;100.00
19777;BME280;10047;42.490;26.012;2023-03-19T03:47:35;99150.59;;;8.76;100.00
19777;BME280;10047;42.490;26.012;2023-03-19T03:50:01;99094.47;;;8.39;100.00
19777;BME280;10047;42.490;26.012;2023-03-19T03:52:28;99106.09;;;8.44;100.00
19777;BME280;10047;42.490;26.012;2023-03-19T03:54:58;99095.69;;;8.52;100.00
19777;BME280;10047;42.490;26.012;2023-03-19T03:57:24;99130.91;;;8.59;100.00
19777;BME280;10047;42.490;26.012;2023-03-19T03:59:50;99175.31;;;8.94;100.00
19777;BME280;10047;42.490;26.012;2023-03-19T04:02:15;99181.63;;;8.83;100.00
19777;BME280;10047;42.490;26.012;2023-03-19T04:04:41;99181.22;;;8.95;100.00
19777;BME280;10047;42.490;26.012;2023-03-19T04:07:07;99164.91;;;9.02;100.00
19777;BME280;10047;42.490;26.012;2023-03-19T04:09:33;99165.13;;;8.96;100.00
19777;BME280;10047;42.490;26.012;2023-03-19T04:11:58;99150.66;;;8.74;100.00
19777;BME280;10047;42.490;26.012;2023-03-19T04:14:24;99193.88;;;8.95;100.00
19777;BME280;10047;42.490;26.012;2023-03-19T04:16:50;99163.09;;;8.56;100.00
19777;BME280;10047;42.490;26.012;2023-03-19T04:19:16;99193.41;;;8.84;100.00
19777;BME280;10047;42.490;26.012;2023-03-19T04:21:41;99196.06;;;8.81;100.00
19777;BME280;10047;42.490;26.012;2023-03-19T04:24:07;99154.22;;;8.69;100.00
19777;BME280;10047;42.490;26.012;2023-03-19T04:26:35;99199.97;;;8.64;100.00
19777;BME280;10047;42.490;26.012;2023-03-19T04:29:01;99198.53;;;8.57;100.00
19777;BME280;10047;42.490;26.012;2023-03-19T04:31:26;99189.53;;;8.73;100.00
19777;BME280;10047;42.490;26.012;2023-03-19T04:33:51;99193.53;;;8.30;100.00
19777;BME280;10047;42.490;26.012;2023-03-19T04:36:17;99163.91;;;8.32;100.00
19777;BME280;10047;42.490;26.012;2023-03-19T04:38:43;99163.94;;;8.30;100.00
19777;BME280;10047;42.490;26.012;2023-03-19T04:41:09;99167.16;;;8.35;100.00
19777;BME280;10047;42.490;26.012;2023-03-19T04:43:35;99109.81;;;9.07;100.00
19777;BME280;10047;42.490;26.012;2023-03-19T04:46:00;99214.50;;;8.84;100.00
19777;BME280;10047;42.490;26.012;2023-03-19T04:48:26;99186.34;;;8.42;100.00
19777;BME280;10047;42.490;26.012;2023-03-19T04:50:51;99176.75;;;8.24;100.00
19777;BME280;10047;42.490;26.012;2023-03-19T04:53:18;99203.28;;;8.40;100.00
19777;BME280;10047;42.490;26.012;2023-03-19T04:55:45;99222.97;;;8.32;100.00
19777;BME280;10047;42.490;26.012;2023-03-19T04:58:11;99244.16;;;8.30;100.00
19777;BME280;10047;42.490;26.012;2023-03-19T05:00:37;99228.41;;;8.46;100.00
19777;BME280;10047;42.490;26.012;2023-03-19T05:03:02;99144.50;;;8.05;100.00
19777;BME280;10047;42.490;26.012;2023-03-19T05:05:28;99223.66;;;8.37;100.00
19777;BME280;10047;42.490;26.012;2023-03-19T05:07:53;99199.06;;;8.13;100.00
19777;BME280;10047;42.490;26.012;2023-03-19T05:10:19;99238.84;;;8.37;100.00
19777;BME280;10047;42.490;26.012;2023-03-19T05:12:45;99199.16;;;8.10;100.00
19777;BME280;10047;42.490;26.012;2023-03-19T05:15:10;99217.38;;;8.21;100.00
19777;BME280;10047;42.490;26.012;2023-03-19T05:17:36;99188.59;;;7.98;100.00
19777;BME280;10047;42.490;26.012;2023-03-19T05:20:02;99233.59;;;8.43;100.00
19777;BME280;10047;42.490;26.012;2023-03-19T05:22:29;99229.97;;;8.50;100.00
19777;BME280;10047;42.490;26.012;2023-03-19T05:24:54;99240.13;;;8.50;100.00
19777;BME280;10047;42.490;26.012;2023-03-19T05:27:20;99236.81;;;8.48;100.00
19777;BME280;10047;42.490;26.012;2023-03-19T05:29:46;99176.53;;;8.33;100.00
19777;BME280;10047;42.490;26.012;2023-03-19T05:32:12;99202.50;;;8.38;100.00
19777;BME280;10047;42.490;26.012;2023-03-19T05:34:38;99218.34;;;8.71;100.00
19777;BME280;10047;42.490;26.012;2023-03-19T05:37:03;99182.59;;;8.54;100.00
19777;BME280;10047;42.490;26.012;2023-03-19T05:39:29;99183.34;;;8.57;100.00
19777;BME280;10047;42.490;26.012;2023-03-19T05:41:54;99135.34;;;8.53;100.00
19777;BME280;10047;42.490;26.012;2023-03-19T05:44:19;99174.41;;;8.46;100.00
19777;BME280;10047;42.490;26.012;2023-03-19T05:46:45;99212.56;;;8.92;100.00
19777;BME280;10047;42.490;26.012;2023-03-19T05:49:11;99183.84;;;8.67;100.00
19777;BME280;10047;42.490;26.012;2023-03-19T05:51:36;99206.72;;;8.90;100.00
19777;BME280;10047;42.490;26.012;2023-03-19T05:54:03;99168.59;;;8.68;100.00
19777;BME280;10047;42.490;26.012;2023-03-19T05:56:29;99212.19;;;9.03;100.00
19777;BME280;10047;42.490;26.012;2023-03-19T05:58:54;99157.41;;;8.99;100.00
19777;BME280;10047;42.490;26.012;2023-03-19T06:01:20;99154.19;;;8.94;100.00
19777;BME280;10047;42.490;26.012;2023-03-19T06:03:46;99158.78;;;9.07;100.00
19777;BME280;10047;42.490;26.012;2023-03-19T06:06:11;99186.81;;;9.50;100.00
19777;BME280;10047;42.490;26.012;2023-03-19T06:08:36;99133.22;;;8.90;100.00
19777;BME280;10047;42.490;26.012;2023-03-19T06:11:02;99194.97;;;9.58;100.00
19777;BME280;10047;42.490;26.012;2023-03-19T06:13:28;99194.78;;;9.63;100.00
19777;BME280;10047;42.490;26.012;2023-03-19T06:15:53;99165.50;;;10.21;100.00
19777;BME280;10047;42.490;26.012;2023-03-19T06:18:19;99184.41;;;10.76;100.00
19777;BME280;10047;42.490;26.012;2023-03-19T06:20:45;99172.94;;;11.26;100.00
19777;BME280;10047;42.490;26.012;2023-03-19T06:23:10;99209.25;;;11.09;100.00
19777;BME280;10047;42.490;26.012;2023-03-19T06:25:36;99229.06;;;11.42;100.00
19777;BME280;10047;42.490;26.012;2023-03-19T06:28:02;99262.34;;;11.94;100.00
19777;BME280;10047;42.490;26.012;2023-03-19T06:30:28;99228.56;;;11.91;100.00
19777;BME280;10047;42.490;26.012;2023-03-19T06:32:53;99248.03;;;11.73;100.00
19777;BME280;10047;42.490;26.012;2023-03-19T06:35:19;99301.53;;;12.48;100.00
19777;BME280;10047;42.490;26.012;2023-03-19T06:37:44;99254.41;;;11.63;100.00
19777;BME280;10047;42.490;26.012;2023-03-19T06:40:10;99237.72;;;12.13;100.00
19777;BME280;10047;42.490;26.012;2023-03-19T06:42:36;99218.16;;;12.67;100.00
19777;BME280;10047;42.490;26.012;2023-03-19T06:45:02;99288.06;;;13.31;100.00
19777;BME280;10047;42.490;26.012;2023-03-19T06:47:27;99298.91;;;12.66;100.00
19777;BME280;10047;42.490;26.012;2023-03-19T06:49:53;99314.66;;;13.10;100.00
19777;BME280;10047;42.490;26.012;2023-03-19T06:52:18;99292.44;;;12.95;100.00
19777;BME280;10047;42.490;26.012;2023-03-19T06:54:44;99276.44;;;12.74;100.00
19777;BME280;10047;42.490;26.012;2023-03-19T06:57:09;99293.94;;;12.99;100.00
19777;BME280;10047;42.490;26.012;2023-03-19T06:59:34;99281.44;;;12.59;100.00
19777;BME280;10047;42.490;26.012;2023-03-19T07:02:00;99280.41;;;12.63;100.00
19777;BME280;10047;42.490;26.012;2023-03-19T07:04:26;99310.41;;;12.92;100.00
19777;BME280;10047;42.490;26.012;2023-03-19T07:06:51;99340.38;;;12.88;100.00
19777;BME280;10047;42.490;26.012;2023-03-19T07:09:17;99304.41;;;13.94;100.00
19777;BME280;10047;42.490;26.012;2023-03-19T07:11:42;99300.13;;;13.62;100.00
19777;BME280;10047;42.490;26.012;2023-03-19T07:14:08;99294.34;;;14.07;100.00
19777;BME280;10047;42.490;26.012;2023-03-19T07:16:33;99356.06;;;13.83;100.00
19777;BME280;10047;42.490;26.012;2023-03-19T07:18:59;99326.66;;;13.92;100.00
19777;BME280;10047;42.490;26.012;2023-03-19T07:21:25;99308.97;;;13.72;100.00
19777;BME280;10047;42.490;26.012;2023-03-19T07:23:50;99336.56;;;13.98;100.00
19777;BME280;10047;42.490;26.012;2023-03-19T07:26:16;99323.41;;;14.98;100.00
19777;BME280;10047;42.490;26.012;2023-03-19T07:28:42;99342.94;;;14.85;100.00
19777;BME280;10047;42.490;26.012;2023-03-19T07:31:07;99280.06;;;14.18;100.00
19777;BME280;10047;42.490;26.012;2023-03-19T07:33:33;99324.59;;;15.22;100.00
19777;BME280;10047;42.490;26.012;2023-03-19T07:35:59;99353.44;;;14.64;100.00
19777;BME280;10047;42.490;26.012;2023-03-19T07:38:24;99341.06;;;14.57;100.00
19777;BME280;10047;42.490;26.012;2023-03-19T07:40:50;99284.94;;;14.54;100.00
19777;BME280;10047;42.490;26.012;2023-03-19T07:43:16;99336.06;;;14.40;100.00
19777;BME280;10047;42.490;26.012;2023-03-19T07:45:41;99355.66;;;14.70;100.00
19777;BME280;10047;42.490;26.012;2023-03-19T07:48:07;99369.63;;;14.65;100.00
19777;BME280;10047;42.490;26.012;2023-03-19T07:50:32;99368.22;;;15.20;100.00
19777;BME280;10047;42.490;26.012;2023-03-19T07:52:58;99344.53;;;14.71;100.00
19777;BME280;10047;42.490;26.012;2023-03-19T07:55:24;99337.72;;;14.86;100.00
19777;BME280;10047;42.490;26.012;2023-03-19T07:57:49;99315.31;;;14.75;100.00
19777;BME280;10047;42.490;26.012;2023-03-19T08:00:15;99276.72;;;15.08;100.00
19777;BME280;10047;42.490;26.012;2023-03-19T08:02:41;99311.75;;;14.62;100.00
19777;BME280;10047;42.490;26.012;2023-03-19T08:05:07;99311.25;;;15.31;100.00
19777;BME280;10047;42.490;26.012;2023-03-19T08:07:34;99280.56;;;15.15;100.00
19777;BME280;10047;42.490;26.012;2023-03-19T08:10:00;99305.84;;;14.92;100.00
19777;BME280;10047;42.490;26.012;2023-03-19T08:12:26;99340.31;;;13.91;100.00
19777;BME280;10047;42.490;26.012;2023-03-19T08:14:52;99293.34;;;14.09;100.00
19777;BME280;10047;42.490;26.012;2023-03-19T08:17:17;99261.31;;;15.24;100.00
19777;BME280;10047;42.490;26.012;2023-03-19T08:19:42;99335.56;;;15.53;100.00
19777;BME280;10047;42.490;26.012;2023-03-19T08:22:08;99307.50;;;14.93;100.00
19777;BME280;10047;42.490;26.012;2023-03-19T08:24:34;99295.56;;;15.93;100.00
19777;BME280;10047;42.490;26.012;2023-03-19T08:26:59;99331.03;;;15.13;100.00
19777;BME280;10047;42.490;26.012;2023-03-19T08:29:25;99319.94;;;16.00;100.00
19777;BME280;10047;42.490;26.012;2023-03-19T08:31:54;99287.03;;;16.07;100.00
19777;BME280;10047;42.490;26.012;2023-03-19T08:34:21;99374.59;;;16.15;100.00
19777;BME280;10047;42.490;26.012;2023-03-19T08:36:47;99333.56;;;15.58;100.00
19777;BME280;10047;42.490;26.012;2023-03-19T08:39:13;99289.63;;;14.32;100.00
19777;BME280;10047;42.490;26.012;2023-03-19T08:41:39;99271.09;;;14.88;100.00
19777;BME280;10047;42.490;26.012;2023-03-19T08:44:04;99323.72;;;14.77;100.00
19777;BME280;10047;42.490;26.012;2023-03-19T08:46:30;99268.22;;;15.08;100.00
19777;BME280;10047;42.490;26.012;2023-03-19T08:48:56;99281.75;;;14.80;100.00
19777;BME280;10047;42.490;26.012;2023-03-19T08:51:21;99267.00;;;15.71;100.00
19777;BME280;10047;42.490;26.012;2023-03-19T08:53:49;99353.78;;;16.33;100.00
19777;BME280;10047;42.490;26.012;2023-03-19T08:56:15;99368.22;;;16.63;100.00
19777;BME280;10047;42.490;26.012;2023-03-19T08:58:41;99424.50;;;16.09;100.00
19777;BME280;10047;42.490;26.012;2023-03-19T09:01:09;99378.97;;;15.85;100.00
19777;BME280;10047;42.490;26.012;2023-03-19T09:03:36;99374.91;;;16.65;100.00
19777;BME280;10047;42.490;26.012;2023-03-19T09:06:04;99374.28;;;16.33;100.00
19777;BME280;10047;42.490;26.012;2023-03-19T09:08:31;99363.34;;;17.11;100.00
19777;BME280;10047;42.490;26.012;2023-03-19T09:10:58;99396.16;;;17.60;100.00
19777;BME280;10047;42.490;26.012;2023-03-19T09:13:24;99462.94;;;16.94;100.00
19777;BME280;10047;42.490;26.012;2023-03-19T09:15:51;99436.16;;;17.24;100.00
19777;BME280;10047;42.490;26.012;2023-03-19T09:18:18;99430.34;;;17.08;100.00
19777;BME280;10047;42.490;26.012;2023-03-19T09:20:45;99444.16;;;17.98;100.00
19777;BME280;10047;42.490;26.012;2023-03-19T09:23:11;99398.31;;;16.04;100.00
19777;BME280;10047;42.490;26.012;2023-03-19T09:25:36;99369.63;;;15.70;100.00
19777;BME280;10047;42.490;26.012;2023-03-19T09:28:02;99454.47;;;16.65;100.00
19777;BME280;10047;42.490;26.012;2023-03-19T09:30:28;99317.91;;;16.05;100.00
19777;BME280;10047;42.490;26.012;2023-03-19T09:32:53;99364.50;;;15.84;100.00
19777;BME280;10047;42.490;26.012;2023-03-19T09:35:19;99368.00;;;15.69;100.00
19777;BME280;10047;42.490;26.012;2023-03-19T09:37:44;99373.72;;;16.97;100.00
19777;BME280;10047;42.490;26.012;2023-03-19T09:40:20;99430.19;;;17.51;100.00
19777;BME280;10047;42.490;26.012;2023-03-19T09:43:15;99402.75;;;16.98;100.00
19777;BME280;10047;42.490;26.012;2023-03-19T09:45:46;99401.44;;;16.78;100.00
19777;BME280;10047;42.490;26.012;2023-03-19T09:48:17;99462.03;;;17.21;100.00
19777;BME280;10047;42.490;26.012;2023-03-19T09:50:45;99446.16;;;17.42;100.00
19777;BME280;10047;42.490;26.012;2023-03-19T09:53:49;99504.31;;;16.47;100.00
19777;BME280;10047;42.490;26.012;2023-03-19T09:56:17;99417.72;;;17.45;100.00
19777;BME280;10047;42.490;26.012;2023-03-19T09:58:44;99498.50;;;17.41;100.00
19777;BME280;10047;42.490;26.012;2023-03-19T10:01:32;99468.75;;;16.13;100.00
19777;BME280;10047;42.490;26.012;2023-03-19T10:10:33;99420.56;;;17.40;100.00
19777;BME280;10047;42.490;26.012;2023-03-19T10:12:38;99471.06;;;17.68;100.00
19777;BME280;10047;42.490;26.012;2023-03-19T10:15:21;99496.84;;;18.18;100.00
19777;BME280;10047;42.490;26.012;2023-03-19T10:18:04;99448.22;;;17.10;100.00
19777;BME280;10047;42.490;26.012;2023-03-19T10:20:48;99528.34;;;18.84;100.00
19777;BME280;10047;42.490;26.012;2023-03-19T10:23:49;99546.19;;;18.50;100.00
19777;BME280;10047;42.490;26.012;2023-03-19T10:26:24;99571.72;;;18.78;100.00
19777;BME280;10047;42.490;26.012;2023-03-19T10:29:10;99549.63;;;17.98;100.00
19777;BME280;10047;42.490;26.012;2023-03-19T10:36:59;99610.13;;;18.43;100.00
19777;BME280;10047;42.490;26.012;2023-03-19T10:39:26;99599.81;;;17.65;100.00
19777;BME280;10047;42.490;26.012;2023-03-19T10:44:37;99650.13;;;19.12;100.00
19777;BME280;10047;42.490;26.012;2023-03-19T10:47:14;99674.56;;;19.06;100.00
19777;BME280;10047;42.490;26.012;2023-03-19T10:49:41;99686.41;;;18.96;100.00
19777;BME280;10047;42.490;26.012;2023-03-19T10:52:23;99613.38;;;18.33;100.00
19777;BME280;10047;42.490;26.012;2023-03-19T10:54:54;99689.59;;;19.50;100.00
19777;BME280;10047;42.490;26.012;2023-03-19T10:57:22;99767.34;;;19.19;100.00
19777;BME280;10047;42.490;26.012;2023-03-19T10:59:47;99776.91;;;19.04;100.00
19777;BME280;10047;42.490;26.012;2023-03-19T11:02:21;99767.91;;;18.84;100.00
19777;BME280;10047;42.490;26.012;2023-03-19T11:05:05;99727.06;;;16.86;100.00
19777;BME280;10047;42.490;26.012;2023-03-19T11:07:32;99751.22;;;18.77;100.00
19777;BME280;10047;42.490;26.012;2023-03-19T11:09:58;99781.66;;;17.47;100.00
19777;BME280;10047;42.490;26.012;2023-03-19T11:12:29;99749.34;;;17.99;100.00
19777;BME280;10047;42.490;26.012;2023-03-19T11:14:56;99850.69;;;18.92;100.00
19777;BME280;10047;42.490;26.012;2023-03-19T11:17:24;99855.91;;;19.05;100.00
19777;BME280;10047;42.490;26.012;2023-03-19T11:19:57;99851.44;;;18.94;100.00
19777;BME280;10047;42.490;26.012;2023-03-19T11:22:31;99865.19;;;19.47;100.00
19777;BME280;10047;42.490;26.012;2023-03-19T11:25:16;99820.50;;;18.68;100.00
19777;BME280;10047;42.490;26.012;2023-03-19T11:28:00;99851.16;;;18.17;100.00
19777;BME280;10047;42.490;26.012;2023-03-19T11:30:27;99908.50;;;19.15;100.00
19777;BME280;10047;42.490;26.012;2023-03-19T11:38:38;99944.97;;;18.68;100.00
19777;BME280;10047;42.490;26.012;2023-03-19T11:50:34;100001.53;;;18.84;98.98
19777;BME280;10047;42.490;26.012;2023-03-19T12:00:53;100062.88;;;20.26;90.23
19777;BME280;10047;42.490;26.012;2023-03-19T12:05:59;100024.19;;;19.20;95.10
19777;BME280;10047;42.490;26.012;2023-03-19T12:08:48;100066.00;;;19.39;94.61
19777;BME280;10047;42.490;26.012;2023-03-19T12:14:12;100080.25;;;19.98;93.29
19777;BME280;10047;42.490;26.012;2023-03-19T12:16:56;100105.41;;;19.41;90.28
19777;BME280;10047;42.490;26.012;2023-03-19T12:22:05;100040.38;;;18.95;99.87
19777;BME280;10047;42.490;26.012;2023-03-19T12:24:44;100089.91;;;19.81;93.00
19777;BME280;10047;42.490;26.012;2023-03-19T12:35:35;100119.97;;;19.95;88.14
19777;BME280;10047;42.490;26.012;2023-03-19T12:40:35;100059.09;;;19.25;92.97
19777;BME280;10047;42.490;26.012;2023-03-19T12:43:07;100115.38;;;20.39;89.60
19777;BME280;10047;42.490;26.012;2023-03-19T12:45:47;100057.09;;;18.74;93.85
19777;BME280;10047;42.490;26.012;2023-03-19T12:48:23;100080.75;;;19.63;96.09
19777;BME280;10047;42.490;26.012;2023-03-19T12:50:51;100109.59;;;20.09;89.80
19777;BME280;10047;42.490;26.012;2023-03-19T12:53:27;100079.63;;;19.67;90.45
19777;BME280;10047;42.490;26.012;2023-03-19T12:55:57;100137.72;;;20.14;86.99
19777;BME280;10047;42.490;26.012;2023-03-19T12:59:04;100145.94;;;19.39;89.87
19777;BME280;10047;42.490;26.012;2023-03-19T13:01:54;100116.84;;;19.09;94.22
19777;BME280;10047;42.490;26.012;2023-03-19T13:04:26;100114.41;;;19.88;92.25
19777;BME280;10047;42.490;26.012;2023-03-19T13:07:05;100075.72;;;19.48;92.14
19777;BME280;10047;42.490;26.012;2023-03-19T13:09:55;100091.69;;;19.94;91.47
19777;BME280;10047;42.490;26.012;2023-03-19T13:12:26;100102.84;;;19.94;93.80
19777;BME280;10047;42.490;26.012;2023-03-19T13:17:55;100118.44;;;19.66;94.81
19777;BME280;10047;42.490;26.012;2023-03-19T13:23:31;100076.97;;;20.08;94.65
19777;BME280;10047;42.490;26.012;2023-03-19T13:25:57;100107.31;;;20.05;89.00
19777;BME280;10047;42.490;26.012;2023-03-19T13:28:33;100127.34;;;20.01;91.25
19777;BME280;10047;42.490;26.012;2023-03-19T13:33:29;100088.47;;;19.23;99.60
19777;BME280;10047;42.490;26.012;2023-03-19T13:35:56;100084.34;;;18.92;100.00
19777;BME280;10047;42.490;26.012;2023-03-19T13:40:53;100105.50;;;19.25;98.34
19777;BME280;10047;42.490;26.012;2023-03-19T13:43:39;100036.47;;;19.16;97.11
19777;BME280;10047;42.490;26.012;2023-03-19T13:51:25;100113.69;;;19.18;98.10
19777;BME280;10047;42.490;26.012;2023-03-19T13:54:06;100119.53;;;19.07;98.49
19777;BME280;10047;42.490;26.012;2023-03-19T13:59:29;100109.09;;;18.80;100.00
19777;BME280;10047;42.490;26.012;2023-03-19T14:01:56;100055.47;;;18.87;100.00
19777;BME280;10047;42.490;26.012;2023-03-19T14:04:29;100058.22;;;18.70;100.00
19777;BME280;10047;42.490;26.012;2023-03-19T14:11:54;100086.28;;;19.02;100.00
19777;BME280;10047;42.490;26.012;2023-03-19T14:14:21;100077.06;;;19.27;100.00